Accueil
METAR-TAF:

METAR-TAF

Aéroports :

Uden, Pays-Bas

Base aérienne Volkel-Uden

latitude: 51-39N, longitude: 005-42E, altitude: 22 m

Observation

Le bulletin a été fait il y a 11 minutes, à 02:25 UTC
Vent 8 kt de est, variant entre est/nord-est et sud-est
Température 11°C
Humidité 58%
Pression 1004 hPa
Visibilité 10 km ou plus
Nuages épars à une hauteur de 7900 ft
Nuages épars à une hauteur de 8400 ft
Nuages fragmentés à une hauteur de 11000 ft

METAR: EHVK 010225Z AUTO 10008KT 060V130 9999 SCT079 SCT084 BKN110 11/03 Q1004 BLU

Heure: 04:36 (02:36 UTC)


TAF: absent

Observations et prévisions météorologiques de plus de 4000 aéroports (messages METAR et TAF).

Les stations disponibles sont représentées par des disques jaunes et rouges sur la carte.

Passer la souris dessus pour voir le nom de la station.

Cliquer dessus pour voir les observations et prévisions météorologiques.

Pour changer de carte: cliquez sur les boutons verts avec une croix noire pour zoomer, sur le bouton vert avec un tiret pour effectuer un zoom arrière, ou sur les flèches vertes pour les cartes adjacentes.


METAR-TAF: